createdAt,value
2022-11-29T00:05:06.261Z,68.60
2022-11-29T00:07:52.149Z,68.50
2022-11-29T00:11:00.697Z,68.80
2022-11-29T00:14:21.246Z,68.60
2022-11-29T00:20:55.061Z,69.00
2022-11-29T00:24:01.601Z,69.00
2022-11-29T00:26:54.701Z,68.80
2022-11-29T00:29:47.543Z,68.50
2022-11-29T00:32:48.129Z,68.80
2022-11-29T00:35:32.514Z,68.90
2022-11-29T00:38:29.529Z,68.70
2022-11-29T00:41:34.253Z,68.80
2022-11-29T00:44:22.787Z,68.70
2022-11-29T00:47:07.274Z,69.20
2022-11-29T00:49:55.178Z,68.90
2022-11-29T00:55:48.421Z,69.20
2022-11-29T00:58:44.234Z,69.00
2022-11-29T01:01:43.473Z,68.90
2022-11-29T01:05:02.671Z,68.80
2022-11-29T01:07:52.089Z,69.00
2022-11-29T01:10:56.874Z,69.00
2022-11-29T01:14:07.113Z,69.00
2022-11-29T01:17:03.050Z,69.20
2022-11-29T01:19:50.976Z,69.10
2022-11-29T01:22:43.046Z,69.20
2022-11-29T01:25:39.130Z,69.20
2022-11-29T01:28:23.569Z,69.20
2022-11-29T01:34:23.659Z,69.10
2022-11-29T01:37:24.239Z,68.90
2022-11-29T01:40:16.941Z,68.90
2022-11-29T01:42:59.429Z,69.20
2022-11-29T01:45:50.699Z,69.10
2022-11-29T01:52:01.049Z,69.20
2022-11-29T01:55:04.433Z,69.30
2022-11-29T01:57:48.330Z,69.20
2022-11-29T02:00:44.491Z,69.30
2022-11-29T02:03:54.698Z,69.20
2022-11-29T02:06:40.783Z,69.30
2022-11-29T02:09:31.881Z,69.40
2022-11-29T02:12:39.785Z,69.10
2022-11-29T02:15:37.084Z,69.20
2022-11-29T02:18:26.316Z,69.00
2022-11-29T02:21:52.102Z,69.60
2022-11-29T02:25:04.287Z,69.30
2022-11-29T02:28:37.108Z,69.40
2022-11-29T02:31:51.903Z,69.40
2022-11-29T02:35:09.217Z,69.40
2022-11-29T02:38:52.408Z,69.80
2022-11-29T02:41:59.967Z,69.60
2022-11-29T02:45:06.900Z,70.00
2022-11-29T02:48:30.234Z,70.20
2022-11-29T02:51:40.206Z,70.10
2022-11-29T02:54:30.953Z,70.40
2022-11-29T02:57:39.152Z,70.60
2022-11-29T03:00:46.120Z,70.30
2022-11-29T03:03:43.265Z,70.80
2022-11-29T03:06:41.634Z,70.70
2022-11-29T03:09:32.082Z,70.90
2022-11-29T03:12:30.894Z,71.00
2022-11-29T03:16:16.072Z,71.10
2022-11-29T03:19:28.023Z,71.30
2022-11-29T03:25:55.306Z,71.10
2022-11-29T03:29:13.643Z,71.40
2022-11-29T03:32:11.030Z,71.50
2022-11-29T03:35:17.038Z,71.50
2022-11-29T03:38:17.444Z,71.50
2022-11-29T03:41:13.590Z,71.70
2022-11-29T03:43:57.936Z,71.90
2022-11-29T03:46:53.107Z,72.10
2022-11-29T03:49:27.613Z,72.00
2022-11-29T03:56:19.723Z,71.90
2022-11-29T03:59:18.099Z,72.10
2022-11-29T04:02:36.496Z,72.20
2022-11-29T04:05:48.865Z,72.20
2022-11-29T04:09:21.189Z,72.10
2022-11-29T04:12:31.928Z,72.50
2022-11-29T04:15:56.539Z,72.40
2022-11-29T04:19:14.139Z,72.50
2022-11-29T04:22:21.630Z,72.50
2022-11-29T04:25:42.926Z,72.60
2022-11-29T04:29:15.472Z,72.50
2022-11-29T04:32:52.149Z,72.70
2022-11-29T04:36:12.229Z,72.60
2022-11-29T04:39:10.836Z,73.00
2022-11-29T04:46:17.331Z,72.70
2022-11-29T04:49:36.098Z,72.70
2022-11-29T04:53:15.363Z,72.80
2022-11-29T04:56:11.327Z,72.80
2022-11-29T04:59:47.304Z,72.70
2022-11-29T05:02:48.542Z,72.90
2022-11-29T05:05:58.217Z,73.00
2022-11-29T05:09:11.042Z,72.80
2022-11-29T05:12:20.138Z,72.80
2022-11-29T05:15:49.736Z,73.00
2022-11-29T05:18:34.403Z,72.80
2022-11-29T05:21:48.694Z,73.20
2022-11-29T05:24:44.720Z,73.00
2022-11-29T05:27:33.287Z,73.00
2022-11-29T05:30:20.223Z,72.90
2022-11-29T05:33:44.822Z,73.30
2022-11-29T05:36:48.916Z,73.00
2022-11-29T05:39:50.344Z,73.00
2022-11-29T05:42:47.979Z,72.90
2022-11-29T05:45:31.503Z,73.10
2022-11-29T05:48:15.741Z,73.00
2022-11-29T05:51:07.685Z,72.80
2022-11-29T05:53:59.480Z,73.00
2022-11-29T05:57:05.707Z,73.00
2022-11-29T05:59:47.164Z,73.00
2022-11-29T06:02:53.979Z,73.30
2022-11-29T06:05:55.273Z,73.10
2022-11-29T06:09:17.073Z,72.90
2022-11-29T06:12:33.508Z,72.90
2022-11-29T06:15:57.830Z,73.00
2022-11-29T06:27:33.118Z,72.80
2022-11-29T06:34:30.415Z,72.70
2022-11-29T06:37:59.917Z,72.90
2022-11-29T06:41:36.875Z,73.10
2022-11-29T06:45:23.940Z,73.00
2022-11-29T06:51:44.504Z,73.20
2022-11-29T06:54:40.413Z,73.30
2022-11-29T06:57:37.780Z,73.50
2022-11-29T07:00:41.600Z,73.40
2022-11-29T07:04:04.148Z,73.40
2022-11-29T07:06:50.928Z,73.10
2022-11-29T07:09:57.693Z,73.30
2022-11-29T07:12:43.200Z,73.40
2022-11-29T07:15:16.730Z,73.20
2022-11-29T07:18:15.033Z,73.00
2022-11-29T07:21:26.183Z,73.10
2022-11-29T07:24:21.426Z,73.10
2022-11-29T07:27:20.854Z,72.80
2022-11-29T07:30:10.412Z,73.00
2022-11-29T07:33:13.869Z,72.90
2022-11-29T07:36:20.797Z,73.00
2022-11-29T07:39:35.595Z,73.40
2022-11-29T07:42:37.850Z,73.20
2022-11-29T07:45:50.298Z,73.10
2022-11-29T07:49:10.856Z,73.20
2022-11-29T07:52:01.312Z,73.30
2022-11-29T07:54:50.068Z,73.60
2022-11-29T07:58:00.623Z,73.70
2022-11-29T08:00:53.513Z,73.60
2022-11-29T08:03:36.341Z,73.70
2022-11-29T08:06:32.535Z,73.80
2022-11-29T08:09:14.870Z,73.30
2022-11-29T08:15:39.150Z,73.30
2022-11-29T08:18:32.576Z,73.70
2022-11-29T08:21:37.933Z,73.80
2022-11-29T08:24:46.890Z,73.40
2022-11-29T08:31:23.551Z,73.10
2022-11-29T08:34:11.964Z,73.20
2022-11-29T08:37:03.457Z,73.70
2022-11-29T08:39:59.513Z,73.50
2022-11-29T08:43:03.372Z,73.40
2022-11-29T08:45:57.333Z,73.60
2022-11-29T08:48:39.668Z,73.30
2022-11-29T08:51:32.523Z,73.40
2022-11-29T08:54:09.046Z,73.20
2022-11-29T08:57:37.963Z,73.20
2022-11-29T08:59:57.697Z,73.50
2022-11-29T09:02:42.201Z,73.80
2022-11-29T09:05:29.154Z,73.30
2022-11-29T09:08:09.840Z,73.30
2022-11-29T09:10:52.715Z,73.00
2022-11-29T09:13:44.437Z,72.90
2022-11-29T09:16:56.949Z,73.00
2022-11-29T09:19:39.492Z,73.00
2022-11-29T09:22:20.143Z,73.50
2022-11-29T09:25:03.013Z,73.40
2022-11-29T09:27:57.181Z,73.30
2022-11-29T09:30:40.551Z,73.20
2022-11-29T09:36:11.933Z,73.30
2022-11-29T09:38:47.034Z,73.30
2022-11-29T09:41:57.277Z,73.00
2022-11-29T09:44:51.882Z,73.20
2022-11-29T09:48:28.160Z,73.00
2022-11-29T09:51:42.687Z,72.90
2022-11-29T09:54:34.160Z,72.70
2022-11-29T09:57:39.733Z,72.80
2022-11-29T10:00:35.150Z,72.80
2022-11-29T10:03:32.407Z,72.80
2022-11-29T10:06:20.292Z,72.70
2022-11-29T10:09:19.798Z,72.80
2022-11-29T10:12:06.902Z,72.40
2022-11-29T10:14:57.292Z,72.20
2022-11-29T10:17:51.496Z,72.20
2022-11-29T10:20:53.662Z,72.20
2022-11-29T10:24:30.025Z,72.00
2022-11-29T10:26:55.286Z,72.10
2022-11-29T10:29:43.706Z,72.20
2022-11-29T10:32:34.383Z,71.90
2022-11-29T10:38:31.408Z,71.80
2022-11-29T10:41:23.222Z,71.90
2022-11-29T10:44:08.179Z,71.50
2022-11-29T10:47:10.934Z,71.70
2022-11-29T10:50:00.162Z,71.30
2022-11-29T10:52:33.221Z,71.30
2022-11-29T10:55:40.492Z,71.50
2022-11-29T10:58:44.754Z,71.20
2022-11-29T11:01:32.638Z,71.70
2022-11-29T11:07:40.887Z,71.40
2022-11-29T11:10:54.538Z,71.30
2022-11-29T11:13:46.194Z,71.20
2022-11-29T11:16:37.551Z,71.10
2022-11-29T11:19:38.120Z,71.10
2022-11-29T11:25:48.718Z,70.80
2022-11-29T11:28:31.897Z,70.80
2022-11-29T11:31:31.752Z,70.70
2022-11-29T11:34:26.890Z,70.50
2022-11-29T11:37:12.624Z,70.50
2022-11-29T11:39:53.036Z,70.90
2022-11-29T11:42:51.131Z,70.90
2022-11-29T11:45:49.853Z,70.90
2022-11-29T11:48:32.732Z,70.50
2022-11-29T11:51:33.140Z,70.70
2022-11-29T11:54:31.357Z,70.50
2022-11-29T11:57:38.528Z,70.60
2022-11-29T12:01:08.654Z,70.30
2022-11-29T12:03:59.327Z,70.60
2022-11-29T12:07:07.290Z,71.20
2022-11-29T12:09:54.420Z,70.60
2022-11-29T12:12:28.001Z,70.40
2022-11-29T12:15:14.902Z,70.30
2022-11-29T12:18:00.053Z,70.20
2022-11-29T12:20:44.522Z,70.50
2022-11-29T12:23:50.818Z,70.50
2022-11-29T12:26:57.128Z,70.30
2022-11-29T12:29:45.436Z,70.10
2022-11-29T12:32:53.285Z,70.30
2022-11-29T12:36:06.913Z,70.10
2022-11-29T12:39:09.953Z,70.20
2022-11-29T12:42:06.816Z,70.30
2022-11-29T12:44:54.995Z,70.00
2022-11-29T12:48:16.092Z,70.10
2022-11-29T12:51:17.881Z,70.20
2022-11-29T12:54:33.728Z,70.10
2022-11-29T12:57:15.561Z,70.30
2022-11-29T13:00:13.152Z,70.00
2022-11-29T13:03:19.237Z,70.00
2022-11-29T13:06:16.105Z,70.10
2022-11-29T13:09:42.503Z,70.00
2022-11-29T13:12:48.476Z,69.90
2022-11-29T13:15:39.049Z,69.60
2022-11-29T13:21:32.172Z,70.00
2022-11-29T13:24:24.412Z,69.70
2022-11-29T13:27:09.165Z,69.90
2022-11-29T13:29:37.749Z,69.90
2022-11-29T13:32:14.448Z,70.10
2022-11-29T13:34:51.011Z,69.70
2022-11-29T13:37:28.140Z,69.90
2022-11-29T13:40:29.529Z,69.70
2022-11-29T13:43:30.486Z,69.70
2022-11-29T13:46:23.139Z,69.50
2022-11-29T13:49:08.148Z,69.60
2022-11-29T13:52:07.475Z,69.60
2022-11-29T13:54:57.368Z,69.70
2022-11-29T13:58:16.335Z,69.70
2022-11-29T14:01:03.444Z,69.60
2022-11-29T14:03:53.634Z,69.90
2022-11-29T14:06:47.953Z,69.80
2022-11-29T14:09:33.445Z,69.70
2022-11-29T14:12:50.385Z,69.70
2022-11-29T14:15:44.706Z,69.70
2022-11-29T14:18:59.276Z,69.60
2022-11-29T14:22:40.512Z,69.60
2022-11-29T14:25:56.500Z,69.60
2022-11-29T14:28:49.873Z,69.50
2022-11-29T14:32:03.355Z,69.80
2022-11-29T14:35:01.489Z,69.60
2022-11-29T14:38:29.227Z,69.60
2022-11-29T14:42:03.393Z,69.60
2022-11-29T14:45:01.332Z,69.80
2022-11-29T14:47:55.622Z,70.00
2022-11-29T14:50:33.220Z,70.00
2022-11-29T14:53:16.056Z,69.80
2022-11-29T14:56:56.668Z,70.10
2022-11-29T15:00:10.617Z,70.00
2022-11-29T15:02:54.515Z,69.60
2022-11-29T15:05:50.559Z,70.10
2022-11-29T15:08:34.697Z,69.90
2022-11-29T15:11:30.645Z,70.60
2022-11-29T15:14:25.150Z,70.00
2022-11-29T15:17:25.402Z,70.00
2022-11-29T15:21:06.355Z,69.80
2022-11-29T15:23:59.887Z,69.90
2022-11-29T15:26:36.853Z,70.10
2022-11-29T15:29:37.295Z,69.80
2022-11-29T15:32:08.065Z,70.10
2022-11-29T15:34:48.909Z,70.00
2022-11-29T15:37:51.143Z,70.00
2022-11-29T15:44:03.077Z,70.10
2022-11-29T15:46:58.557Z,70.00
2022-11-29T15:49:46.779Z,70.20
2022-11-29T15:52:34.474Z,69.90
2022-11-29T15:58:35.024Z,70.10
2022-11-29T16:01:38.938Z,70.00
2022-11-29T16:04:28.859Z,70.10
2022-11-29T16:07:36.613Z,69.90
2022-11-29T16:10:18.630Z,70.20
2022-11-29T16:13:09.696Z,70.10
2022-11-29T16:16:00.911Z,70.00
2022-11-29T16:19:05.551Z,70.40
2022-11-29T16:21:55.588Z,70.30
2022-11-29T16:24:50.188Z,70.30
2022-11-29T16:27:53.095Z,70.20
2022-11-29T16:30:56.060Z,70.20
2022-11-29T16:34:04.832Z,70.30
2022-11-29T16:40:15.928Z,70.10
2022-11-29T16:43:58.008Z,70.00
2022-11-29T16:47:10.391Z,70.00
2022-11-29T16:50:10.790Z,70.20
2022-11-29T16:53:05.507Z,70.00
2022-11-29T16:55:52.771Z,70.20
2022-11-29T16:59:17.208Z,70.00
2022-11-29T17:02:15.780Z,69.90
2022-11-29T17:05:07.606Z,69.90
2022-11-29T17:08:03.425Z,70.00
2022-11-29T17:10:58.096Z,69.90
2022-11-29T17:14:07.960Z,70.00
2022-11-29T17:17:16.033Z,70.20
2022-11-29T17:20:06.301Z,69.80
2022-11-29T17:23:08.645Z,70.20
2022-11-29T17:25:53.346Z,70.00
2022-11-29T17:28:27.431Z,69.60
2022-11-29T17:30:56.743Z,70.10
2022-11-29T17:33:33.050Z,70.00
2022-11-29T17:36:06.047Z,70.00
2022-11-29T17:41:48.377Z,70.30
2022-11-29T17:44:41.056Z,70.10
2022-11-29T17:47:20.896Z,69.80
2022-11-29T17:50:17.047Z,70.00
2022-11-29T17:53:06.443Z,70.10
2022-11-29T17:56:05.724Z,70.00
2022-11-29T17:59:06.133Z,69.80
2022-11-29T18:01:54.252Z,69.90
2022-11-29T18:04:38.967Z,69.80
2022-11-29T18:07:58.924Z,69.80
2022-11-29T18:10:47.720Z,69.90
2022-11-29T18:13:48.758Z,69.80
2022-11-29T18:16:43.393Z,69.80
2022-11-29T18:19:41.269Z,69.70
2022-11-29T18:22:35.996Z,69.60
2022-11-29T18:25:38.831Z,69.40
2022-11-29T18:28:36.667Z,69.60
2022-11-29T18:31:23.731Z,69.30
2022-11-29T18:34:16.233Z,69.50
2022-11-29T18:37:03.007Z,69.40
2022-11-29T18:40:03.277Z,69.60
2022-11-29T18:43:07.432Z,69.50
2022-11-29T18:45:37.063Z,69.20
2022-11-29T18:48:09.794Z,69.10
2022-11-29T18:51:29.865Z,69.20
2022-11-29T18:54:45.457Z,69.30
2022-11-29T18:57:36.622Z,69.50
2022-11-29T19:00:31.611Z,69.20
2022-11-29T19:03:15.591Z,69.20
2022-11-29T19:06:18.566Z,69.40
2022-11-29T19:08:49.202Z,69.10
2022-11-29T19:11:22.201Z,69.00
2022-11-29T19:14:13.735Z,69.00
2022-11-29T19:16:58.568Z,69.30
2022-11-29T19:19:44.399Z,68.70
2022-11-29T19:23:00.483Z,69.00
2022-11-29T19:26:05.726Z,69.20
2022-11-29T19:28:52.948Z,69.20
2022-11-29T19:34:42.274Z,69.00
2022-11-29T19:37:50.700Z,69.00
2022-11-29T19:40:29.356Z,68.90
2022-11-29T19:43:17.003Z,69.30
2022-11-29T19:46:22.080Z,69.10
2022-11-29T19:49:02.411Z,68.80
2022-11-29T19:51:43.474Z,69.10
2022-11-29T19:54:31.026Z,69.10
2022-11-29T19:57:24.400Z,68.80
2022-11-29T20:00:14.643Z,69.00
2022-11-29T20:06:24.982Z,68.80
2022-11-29T20:09:11.202Z,69.00
2022-11-29T20:11:39.627Z,69.00
2022-11-29T20:14:54.826Z,68.90
2022-11-29T20:17:39.030Z,68.60
2022-11-29T20:20:16.450Z,69.20
2022-11-29T20:22:59.960Z,68.80
2022-11-29T20:25:44.307Z,69.20
2022-11-29T20:28:12.840Z,68.70
2022-11-29T20:30:42.587Z,69.00
2022-11-29T20:33:30.066Z,68.90
2022-11-29T20:36:34.550Z,68.80
2022-11-29T20:39:45.110Z,68.80
2022-11-29T20:42:57.020Z,68.80
2022-11-29T20:45:36.780Z,68.60
2022-11-29T20:48:30.917Z,68.70
2022-11-29T20:51:12.024Z,68.70
2022-11-29T20:53:47.160Z,68.80
2022-11-29T20:56:21.618Z,68.50
2022-11-29T20:59:34.075Z,68.30
2022-11-29T21:02:24.278Z,68.30
2022-11-29T21:05:08.139Z,68.60
2022-11-29T21:08:02.372Z,68.60
2022-11-29T21:10:53.025Z,68.30
2022-11-29T21:14:00.406Z,68.30
2022-11-29T21:16:59.199Z,68.30
2022-11-29T21:20:00.564Z,68.40
2022-11-29T21:22:49.786Z,68.10
2022-11-29T21:25:33.389Z,68.20
2022-11-29T21:28:23.656Z,68.50
2022-11-29T21:31:00.634Z,68.70
2022-11-29T21:34:07.083Z,68.20
2022-11-29T21:36:55.109Z,68.40
2022-11-29T21:39:37.819Z,68.60
2022-11-29T21:42:44.140Z,68.60
2022-11-29T21:45:24.746Z,68.60
2022-11-29T21:47:53.764Z,68.60
2022-11-29T21:50:48.748Z,68.60
2022-11-29T21:53:50.891Z,68.80
2022-11-29T21:56:31.788Z,68.60
2022-11-29T21:59:22.655Z,68.70
2022-11-29T22:02:05.087Z,68.70
2022-11-29T22:04:56.438Z,68.60
2022-11-29T22:07:39.496Z,68.90
2022-11-29T22:10:13.321Z,69.00
2022-11-29T22:12:52.145Z,68.60
2022-11-29T22:15:40.068Z,68.80
2022-11-29T22:18:18.010Z,69.00
2022-11-29T22:21:05.868Z,68.50
2022-11-29T22:23:43.068Z,68.90
2022-11-29T22:26:17.393Z,69.00
2022-11-29T22:29:06.895Z,69.00
2022-11-29T22:31:49.042Z,69.00
2022-11-29T22:34:30.400Z,68.90
2022-11-29T22:37:02.001Z,68.50
2022-11-29T22:39:40.258Z,69.00
2022-11-29T22:42:23.088Z,69.10
2022-11-29T22:45:21.195Z,68.60
2022-11-29T22:47:53.124Z,68.60
2022-11-29T22:50:36.822Z,69.00
2022-11-29T22:53:22.384Z,68.30
2022-11-29T22:56:12.240Z,68.70
2022-11-29T22:59:00.127Z,68.60
2022-11-29T23:01:49.355Z,68.40
2022-11-29T23:04:28.383Z,68.50
2022-11-29T23:06:56.721Z,68.60
2022-11-29T23:09:34.062Z,68.40
2022-11-29T23:15:24.917Z,68.60
2022-11-29T23:18:05.554Z,68.60
2022-11-29T23:21:10.132Z,68.30
2022-11-29T23:24:15.608Z,68.20
2022-11-29T23:26:57.368Z,68.20
2022-11-29T23:29:39.442Z,68.10
2022-11-29T23:32:28.113Z,68.50
2022-11-29T23:35:04.910Z,67.90
2022-11-29T23:37:37.613Z,68.30
2022-11-29T23:40:20.702Z,68.20
2022-11-29T23:43:01.771Z,68.10
2022-11-29T23:45:30.104Z,68.30
2022-11-29T23:48:08.538Z,68.20
2022-11-29T23:50:47.639Z,68.60
2022-11-29T23:53:27.594Z,68.60
2022-11-29T23:56:06.598Z,68.40
2022-11-29T23:58:41.152Z,68.10
